Time;durP1;ratioP1;P1;durP2;ratioP2;P2;SDS_P1;SDS_P2;PMS_P1;PMS_P2;Temp;Humidity;BMP_temperature;BMP_pressure;BME280_temperature;BME280_humidity;BME280_pressure;Samples;Min_cycle;Max_cycle;Signal;HPM_P1;HPM_P2
2023/10/08 00:01:21;;;;;;;;;;;19.20;94.90;;;;;;5112242;28;20373;-70
2023/10/08 00:03:49;;;;;;;;;;;19.40;94.90;;;;;;5104652;28;19916;-69
2023/10/08 00:06:16;;;;;;;;;;;19.40;94.50;;;;;;5092382;28;20012;-68
2023/10/08 00:08:42;;;;;;;;;;;19.30;94.60;;;;;;5075393;28;20384;-70
2023/10/08 00:11:12;;;;;;;;;;;19.40;94.20;;;;;;5093611;28;20023;-69
2023/10/08 00:13:41;;;;;;;;;;;19.40;94.00;;;;;;5093529;28;19916;-69
2023/10/08 00:16:11;;;;;;;;;;;19.40;94.20;;;;;;5102898;28;19912;-69
2023/10/08 00:18:48;;;;;;;;;;;19.50;93.90;;;;;;5113631;28;19911;-70
2023/10/08 00:21:28;;;;;;;;;;;19.60;94.20;;;;;;5113412;28;19908;-69
2023/10/08 00:23:57;;;;;;;;;;;19.80;93.50;;;;;;5102346;28;19912;-67
2023/10/08 00:26:30;;;;;;;;;;;20.00;92.70;;;;;;5093244;28;19990;-69
2023/10/08 00:28:59;;;;;;;;;;;19.90;92.60;;;;;;5093233;28;19958;-70
2023/10/08 00:31:30;;;;;;;;;;;20.10;92.40;;;;;;5092477;28;19999;-68
2023/10/08 00:33:57;;;;;;;;;;;20.30;92.20;;;;;;5093091;28;20004;-68
2023/10/08 00:36:24;;;;;;;;;;;20.60;92.20;;;;;;5093162;28;19908;-68
2023/10/08 00:39:00;;;;;;;;;;;20.90;92.30;;;;;;5093008;28;20012;-67
2023/10/08 00:41:30;;;;;;;;;;;21.30;91.00;;;;;;5092922;28;19908;-68
2023/10/08 00:43:59;;;;;;;;;;;21.60;90.90;;;;;;5107050;28;20101;-70
2023/10/08 00:46:30;;;;;;;;;;;21.70;88.80;;;;;;5113312;28;19915;-71
2023/10/08 00:48:58;;;;;;;;;;;21.70;87.90;;;;;;5111377;28;20011;-69
2023/10/08 00:51:32;;;;;;;;;;;21.70;87.30;;;;;;5112481;28;20352;-70
2023/10/08 00:54:07;;;;;;;;;;;21.70;87.50;;;;;;5111886;28;20156;-72
2023/10/08 00:56:57;;;;;;;;;;;21.70;86.50;;;;;;5111139;28;19912;-69
2023/10/08 00:59:26;;;;;;;;;;;21.60;86.50;;;;;;5095264;28;19912;-70
2023/10/08 01:01:58;;;;;;;;;;;21.60;86.60;;;;;;5092394;28;19916;-72
2023/10/08 01:04:33;;;;;;;;;;;21.60;87.60;;;;;;5092387;28;19908;-69
2023/10/08 01:07:01;;;;;;;;;;;21.80;86.60;;;;;;5104736;28;19916;-71
2023/10/08 01:09:35;;;;;;;;;;;22.10;85.50;;;;;;5109021;28;19911;-68
2023/10/08 01:12:09;;;;;;;;;;;22.40;83.60;;;;;;5109572;28;19919;-68
2023/10/08 01:14:42;;;;;;;;;;;22.70;83.50;;;;;;5117223;28;20277;-66
2023/10/08 01:17:13;;;;;;;;;;;22.90;84.70;;;;;;5113784;28;20210;-72
2023/10/08 01:19:41;;;;;;;;;;;22.80;79.50;;;;;;5101188;28;20258;-72
2023/10/08 01:22:10;;;;;;;;;;;22.70;82.00;;;;;;5105284;28;20280;-65
2023/10/08 01:24:36;;;;;;;;;;;23.00;79.50;;;;;;5106320;28;19987;-72
2023/10/08 01:27:05;;;;;;;;;;;23.00;78.80;;;;;;5111260;28;20432;-68
2023/10/08 01:29:31;;;;;;;;;;;22.60;80.00;;;;;;5111226;28;19912;-67
2023/10/08 01:31:58;;;;;;;;;;;22.60;81.50;;;;;;5096125;28;19916;-66
2023/10/08 01:34:30;;;;;;;;;;;22.40;84.30;;;;;;5075455;28;20277;-71
2023/10/08 01:37:04;;;;;;;;;;;22.10;84.10;;;;;;5107675;28;19965;-68
2023/10/08 01:39:32;;;;;;;;;;;22.00;85.00;;;;;;5107838;28;19965;-72
2023/10/08 01:41:58;;;;;;;;;;;21.80;85.70;;;;;;5113778;28;19914;-70
2023/10/08 01:44:29;;;;;;;;;;;21.70;86.50;;;;;;5100062;28;19912;-67
2023/10/08 01:46:58;;;;;;;;;;;21.60;87.20;;;;;;5106574;28;20296;-68
2023/10/08 01:49:33;;;;;;;;;;;21.50;87.30;;;;;;5096446;28;19920;-67
2023/10/08 01:52:05;;;;;;;;;;;21.70;87.40;;;;;;5094933;28;20030;-69
2023/10/08 01:54:35;;;;;;;;;;;22.00;86.30;;;;;;5100853;28;19908;-70
2023/10/08 01:57:03;;;;;;;;;;;22.10;86.70;;;;;;5105425;28;19912;-67
2023/10/08 01:59:32;;;;;;;;;;;22.20;84.70;;;;;;5095059;28;19908;-67
2023/10/08 02:02:00;;;;;;;;;;;22.60;84.40;;;;;;5095253;28;20002;-67
2023/10/08 02:04:28;;;;;;;;;;;23.10;82.50;;;;;;5079153;28;19930;-68
2023/10/08 02:06:54;;;;;;;;;;;23.80;83.00;;;;;;5112225;28;19955;-70
2023/10/08 02:09:26;;;;;;;;;;;24.30;80.10;;;;;;5096749;28;19999;-71
2023/10/08 02:11:53;;;;;;;;;;;24.80;81.60;;;;;;5115681;28;19912;-70
2023/10/08 02:14:22;;;;;;;;;;;25.10;79.80;;;;;;5099239;28;20421;-71
2023/10/08 02:16:52;;;;;;;;;;;24.70;80.90;;;;;;5098417;28;19912;-68
2023/10/08 02:19:26;;;;;;;;;;;24.20;82.10;;;;;;5094763;28;19915;-70
2023/10/08 02:21:54;;;;;;;;;;;23.90;83.00;;;;;;5094611;28;19919;-70
2023/10/08 02:24:24;;;;;;;;;;;23.40;84.20;;;;;;5097877;28;20283;-67
2023/10/08 02:26:57;;;;;;;;;;;23.30;84.10;;;;;;5114760;28;19907;-68
2023/10/08 02:29:29;;;;;;;;;;;23.30;85.30;;;;;;5094195;28;19916;-68
2023/10/08 02:31:58;;;;;;;;;;;23.30;84.20;;;;;;5096386;28;19962;-66
2023/10/08 02:34:27;;;;;;;;;;;23.40;84.30;;;;;;5088018;28;20258;-70
2023/10/08 02:36:56;;;;;;;;;;;23.70;84.20;;;;;;5099376;28;20010;-70
2023/10/08 02:39:26;;;;;;;;;;;23.80;83.40;;;;;;5076135;28;19981;-69
2023/10/08 02:41:56;;;;;;;;;;;24.30;84.10;;;;;;5076253;28;19908;-71
2023/10/08 02:44:23;;;;;;;;;;;25.00;81.00;;;;;;5098023;28;20010;-67
2023/10/08 02:46:54;;;;;;;;;;;25.50;79.60;;;;;;5086153;28;19960;-69
2023/10/08 02:49:25;;;;;;;;;;;25.90;78.70;;;;;;5114293;28;19908;-71
2023/10/08 02:51:55;;;;;;;;;;;26.10;77.70;;;;;;5096755;28;19920;-71
2023/10/08 02:54:36;;;;;;;;;;;26.90;77.80;;;;;;5104664;28;20360;-69
2023/10/08 02:57:10;;;;;;;;;;;28.30;74.80;;;;;;5111250;28;20312;-69
2023/10/08 02:59:54;;;;;;;;;;;29.30;72.40;;;;;;5109842;28;19976;-69
2023/10/08 03:02:25;;;;;;;;;;;29.40;69.60;;;;;;5112996;28;19911;-72
2023/10/08 03:04:53;;;;;;;;;;;29.60;70.70;;;;;;5086179;28;20289;-71
2023/10/08 03:07:21;;;;;;;;;;;30.30;68.60;;;;;;5112811;28;19943;-72
2023/10/08 03:09:50;;;;;;;;;;;29.40;69.40;;;;;;5095859;28;20457;-70
2023/10/08 03:12:17;;;;;;;;;;;28.80;70.10;;;;;;5109958;28;19915;-71
2023/10/08 03:15:01;;;;;;;;;;;29.60;69.40;;;;;;5093006;28;20349;-72
2023/10/08 03:17:29;;;;;;;;;;;30.90;66.70;;;;;;5106122;28;19919;-73
2023/10/08 03:20:27;;;;;;;;;;;32.20;64.30;;;;;;5092995;28;19908;-68
2023/10/08 03:22:49;;;;;;;;;;;32.50;62.50;;;;;;5111595;28;19963;-72
2023/10/08 03:25:17;;;;;;;;;;;32.10;61.80;;;;;;5112826;28;19957;-67
2023/10/08 03:27:44;;;;;;;;;;;32.60;63.40;;;;;;5113698;28;19919;-71
2023/10/08 03:30:14;;;;;;;;;;;34.10;60.50;;;;;;5101960;28;19920;-70
2023/10/08 03:32:55;;;;;;;;;;;35.20;58.30;;;;;;5109648;28;19920;-66
2023/10/08 03:35:27;;;;;;;;;;;34.50;59.60;;;;;;5113779;28;20394;-70
2023/10/08 03:38:17;;;;;;;;;;;31.80;60.00;;;;;;5093436;28;19940;-68
2023/10/08 03:40:46;;;;;;;;;;;29.80;63.30;;;;;;5109874;28;19907;-72
2023/10/08 03:44:01;;;;;;;;;;;28.50;64.90;;;;;;5113946;28;19973;-72
2023/10/08 03:46:05;;;;;;;;;;;27.50;66.70;;;;;;5102539;28;20375;-72
2023/10/08 03:48:36;;;;;;;;;;;27.00;67.70;;;;;;5111503;28;19927;-73
2023/10/08 03:51:06;;;;;;;;;;;26.30;69.30;;;;;;5104237;28;20049;-70
2023/10/08 03:53:57;;;;;;;;;;;26.80;71.60;;;;;;5104140;28;19943;-71
2023/10/08 03:56:22;;;;;;;;;;;27.50;67.90;;;;;;5112401;28;19908;-71
2023/10/08 03:58:49;;;;;;;;;;;30.00;66.90;;;;;;5109586;28;19908;-66
2023/10/08 04:01:19;;;;;;;;;;;32.20;62.30;;;;;;5093343;28;19908;-65
2023/10/08 04:03:58;;;;;;;;;;;32.80;61.40;;;;;;5093026;28;20002;-68
2023/10/08 04:06:38;;;;;;;;;;;33.60;60.00;;;;;;5101128;28;20037;-70
2023/10/08 04:09:16;;;;;;;;;;;34.80;58.70;;;;;;5095627;28;19918;-70
2023/10/08 04:14:19;;;;;;;;;;;35.60;57.40;;;;;;5112939;28;19991;-71
2023/10/08 04:16:46;;;;;;;;;;;35.40;57.60;;;;;;5113239;28;19915;-67
2023/10/08 04:19:17;;;;;;;;;;;35.00;56.60;;;;;;5113145;28;20316;-68
2023/10/08 04:21:45;;;;;;;;;;;35.50;56.60;;;;;;5095166;28;20713;-66
2023/10/08 04:24:14;;;;;;;;;;;36.20;57.80;;;;;;5100262;28;20002;-70
2023/10/08 04:26:42;;;;;;;;;;;36.30;56.50;;;;;;5109432;28;20357;-69
2023/10/08 04:29:09;;;;;;;;;;;35.70;55.50;;;;;;5092838;28;19947;-71
2023/10/08 04:31:39;;;;;;;;;;;35.60;56.40;;;;;;5092413;28;19924;-71
2023/10/08 04:34:15;;;;;;;;;;;35.50;55.60;;;;;;5091494;28;19994;-70
2023/10/08 04:37:00;;;;;;;;;;;32.80;57.20;;;;;;5103087;28;19919;-71
2023/10/08 04:39:33;;;;;;;;;;;33.50;58.50;;;;;;5102559;28;19919;-71
2023/10/08 04:42:06;;;;;;;;;;;34.00;55.50;;;;;;5102761;28;20339;-72
2023/10/08 04:44:33;;;;;;;;;;;33.40;57.10;;;;;;5111685;28;19908;-70
2023/10/08 04:47:04;;;;;;;;;;;33.80;56.60;;;;;;5112327;28;20360;-72
2023/10/08 04:49:33;;;;;;;;;;;34.90;56.60;;;;;;5112851;28;19916;-73
2023/10/08 04:52:00;;;;;;;;;;;35.20;55.40;;;;;;5109890;28;19912;-71
2023/10/08 04:54:30;;;;;;;;;;;33.40;57.20;;;;;;5111647;28;20432;-67
2023/10/08 04:57:00;;;;;;;;;;;32.60;59.80;;;;;;5102403;28;20360;-66
2023/10/08 04:59:34;;;;;;;;;;;31.80;59.50;;;;;;5109970;28;19916;-70
2023/10/08 05:02:22;;;;;;;;;;;32.30;59.40;;;;;;5112755;28;19907;-71
2023/10/08 05:08:00;;;;;;;;;;;31.10;60.50;;;;;;5112879;28;19922;-70
2023/10/08 05:15:32;;;;;;;;;;;31.90;60.10;;;;;;5112988;28;19931;-70
2023/10/08 05:26:20;;;;;;;;;;;32.20;59.20;;;;;;5111747;28;19919;-72
2023/10/08 05:29:00;;;;;;;;;;;31.70;59.50;;;;;;5111583;28;19950;-68
2023/10/08 05:32:17;;;;;;;;;;;33.30;58.80;;;;;;5108881;28;19927;-69
2023/10/08 05:34:18;;;;;;;;;;;33.30;58.10;;;;;;5111095;28;19912;-64
2023/10/08 05:37:11;;;;;;;;;;;31.30;59.30;;;;;;5111993;28;20493;-67
2023/10/08 05:39:43;;;;;;;;;;;31.40;61.10;;;;;;5111548;28;20414;-71
2023/10/08 05:55:33;;;;;;;;;;;32.00;56.40;;;;;;5112336;28;19961;-68
2023/10/08 06:08:51;;;;;;;;;;;32.60;58.10;;;;;;5090144;28;20065;-70
2023/10/08 06:11:41;;;;;;;;;;;31.20;58.60;;;;;;5099816;28;20311;-70
2023/10/08 06:14:14;;;;;;;;;;;29.80;59.20;;;;;;5111352;28;19961;-70
2023/10/08 06:16:43;;;;;;;;;;;28.70;63.10;;;;;;5094308;28;19915;-71
2023/10/08 06:19:10;;;;;;;;;;;29.70;60.70;;;;;;5110512;28;19935;-71
2023/10/08 06:21:39;;;;;;;;;;;29.40;61.80;;;;;;5114856;28;20364;-70
2023/10/08 06:24:10;;;;;;;;;;;29.80;61.50;;;;;;5115647;28;19908;-69
2023/10/08 06:26:43;;;;;;;;;;;31.10;60.70;;;;;;5101000;28;20429;-68
2023/10/08 06:29:33;;;;;;;;;;;31.60;58.80;;;;;;5100859;28;19915;-67
2023/10/08 06:32:02;;;;;;;;;;;31.40;58.70;;;;;;5101800;28;19916;-66
2023/10/08 06:34:31;;;;;;;;;;;30.80;60.10;;;;;;5076640;28;19959;-69
2023/10/08 06:36:59;;;;;;;;;;;30.70;60.60;;;;;;5097185;28;19908;-69
2023/10/08 06:39:33;;;;;;;;;;;29.70;62.70;;;;;;5112677;28;19915;-68
2023/10/08 06:42:00;;;;;;;;;;;29.30;60.50;;;;;;5104624;28;19943;-68
2023/10/08 06:44:27;;;;;;;;;;;28.80;61.80;;;;;;5093860;28;20422;-67
2023/10/08 06:46:56;;;;;;;;;;;28.50;61.90;;;;;;5114997;28;19911;-69
2023/10/08 06:49:25;;;;;;;;;;;28.30;62.50;;;;;;5114974;28;19980;-68
2023/10/08 06:51:53;;;;;;;;;;;29.00;61.60;;;;;;5106885;28;19923;-68
2023/10/08 06:54:22;;;;;;;;;;;28.30;62.10;;;;;;5095840;28;19915;-69
2023/10/08 06:56:52;;;;;;;;;;;27.90;63.40;;;;;;5114694;28;20378;-68
2023/10/08 06:59:22;;;;;;;;;;;28.10;63.20;;;;;;5113737;28;19918;-70
2023/10/08 07:01:51;;;;;;;;;;;28.20;63.70;;;;;;5088758;28;19997;-69
2023/10/08 07:04:18;;;;;;;;;;;28.30;63.40;;;;;;5094271;28;19915;-68
2023/10/08 07:06:50;;;;;;;;;;;27.70;63.70;;;;;;5094453;28;19961;-65
2023/10/08 07:09:29;;;;;;;;;;;27.50;65.00;;;;;;5103324;28;19915;-70
2023/10/08 07:11:56;;;;;;;;;;;26.80;66.20;;;;;;5106513;28;19920;-67
2023/10/08 07:14:26;;;;;;;;;;;25.80;68.30;;;;;;5113912;28;20036;-69
2023/10/08 07:16:59;;;;;;;;;;;24.90;70.60;;;;;;5094372;28;19918;-69
2023/10/08 07:19:37;;;;;;;;;;;24.30;72.20;;;;;;5104576;28;19914;-69
2023/10/08 07:22:17;;;;;;;;;;;23.10;74.60;;;;;;5104389;28;19914;-67
2023/10/08 07:24:51;;;;;;;;;;;22.60;77.40;;;;;;5113138;28;19912;-69
2023/10/08 07:27:21;;;;;;;;;;;21.80;79.10;;;;;;5114442;28;19915;-67
2023/10/08 07:29:48;;;;;;;;;;;21.10;82.10;;;;;;5113812;28;19954;-70
2023/10/08 07:32:18;;;;;;;;;;;20.80;83.60;;;;;;5102059;28;19912;-66
2023/10/08 07:34:45;;;;;;;;;;;20.50;84.50;;;;;;5095690;28;19940;-68
2023/10/08 07:37:13;;;;;;;;;;;20.10;86.80;;;;;;5114029;28;19926;-67
2023/10/08 07:39:46;;;;;;;;;;;19.80;87.50;;;;;;5108506;28;19908;-68
2023/10/08 07:42:13;;;;;;;;;;;19.80;88.30;;;;;;5093305;28;19912;-68
2023/10/08 07:44:40;;;;;;;;;;;19.60;88.40;;;;;;5093648;28;20003;-68
2023/10/08 07:47:11;;;;;;;;;;;19.50;89.90;;;;;;5092754;28;19923;-63
2023/10/08 07:49:38;;;;;;;;;;;19.50;90.00;;;;;;5105140;28;19907;-69
2023/10/08 07:52:05;;;;;;;;;;;19.50;90.10;;;;;;5112908;28;19969;-68
2023/10/08 07:54:35;;;;;;;;;;;19.30;90.30;;;;;;5111796;28;19951;-67
2023/10/08 07:57:09;;;;;;;;;;;19.30;89.80;;;;;;5097814;28;20383;-68
2023/10/08 07:59:42;;;;;;;;;;;19.30;89.50;;;;;;5113693;28;19914;-69
2023/10/08 08:02:12;;;;;;;;;;;19.30;89.70;;;;;;5114095;28;19969;-69
2023/10/08 08:04:39;;;;;;;;;;;19.20;87.80;;;;;;5104902;28;19915;-67
2023/10/08 08:07:07;;;;;;;;;;;19.20;88.20;;;;;;5099213;28;19912;-68
2023/10/08 08:09:37;;;;;;;;;;;19.10;88.10;;;;;;5106730;28;20368;-71
2023/10/08 08:12:11;;;;;;;;;;;19.00;88.20;;;;;;5093122;28;20021;-70
2023/10/08 08:14:41;;;;;;;;;;;18.90;88.60;;;;;;5093419;28;20010;-68
2023/10/08 08:17:14;;;;;;;;;;;19.00;88.80;;;;;;5101908;28;19952;-71
2023/10/08 08:19:47;;;;;;;;;;;18.70;89.50;;;;;;5112078;28;20206;-69
2023/10/08 08:22:30;;;;;;;;;;;18.70;89.30;;;;;;5113179;28;19919;-67
2023/10/08 08:25:15;;;;;;;;;;;18.60;89.00;;;;;;5113012;28;19907;-69
2023/10/08 08:27:46;;;;;;;;;;;18.60;89.30;;;;;;5112908;28;19908;-68
2023/10/08 08:30:16;;;;;;;;;;;18.60;90.10;;;;;;5113301;28;19939;-69
2023/10/08 08:32:49;;;;;;;;;;;18.60;90.00;;;;;;5113480;28;19908;-69
2023/10/08 08:35:16;;;;;;;;;;;18.60;90.00;;;;;;5113051;28;20284;-71
2023/10/08 08:37:43;;;;;;;;;;;18.50;90.30;;;;;;5113007;28;20343;-68
2023/10/08 08:40:19;;;;;;;;;;;18.50;90.40;;;;;;5112996;28;20272;-69
2023/10/08 08:42:47;;;;;;;;;;;18.40;90.50;;;;;;5113409;28;19908;-68
2023/10/08 08:45:15;;;;;;;;;;;18.30;90.60;;;;;;5112539;28;19963;-68
2023/10/08 08:47:42;;;;;;;;;;;18.30;91.00;;;;;;5114754;28;19941;-70
2023/10/08 08:50:09;;;;;;;;;;;18.30;91.30;;;;;;5113743;28;19912;-67
2023/10/08 08:52:36;;;;;;;;;;;18.20;91.20;;;;;;5094628;28;19999;-65
2023/10/08 08:55:14;;;;;;;;;;;18.10;91.40;;;;;;5094873;28;20525;-69
2023/10/08 08:57:42;;;;;;;;;;;18.10;91.40;;;;;;5113051;28;19907;-65
2023/10/08 09:00:12;;;;;;;;;;;18.10;91.70;;;;;;5112525;28;19926;-69
2023/10/08 09:02:38;;;;;;;;;;;18.20;91.90;;;;;;5112559;28;19915;-69
2023/10/08 09:05:13;;;;;;;;;;;18.20;91.70;;;;;;5112919;28;19908;-69
2023/10/08 09:07:58;;;;;;;;;;;18.20;91.60;;;;;;5110442;28;19907;-71
2023/10/08 09:10:28;;;;;;;;;;;18.10;91.60;;;;;;5108059;28;20002;-75
2023/10/08 09:12:59;;;;;;;;;;;18.10;91.80;;;;;;5110905;28;19965;-76
2023/10/08 09:15:29;;;;;;;;;;;18.10;92.00;;;;;;5111214;28;20348;-69
2023/10/08 09:17:56;;;;;;;;;;;18.00;92.30;;;;;;5112678;28;19953;-67
2023/10/08 09:20:23;;;;;;;;;;;18.00;92.80;;;;;;5112663;28;19930;-70
2023/10/08 09:23:21;;;;;;;;;;;17.90;92.70;;;;;;5112453;28;19908;-74
2023/10/08 09:25:59;;;;;;;;;;;18.00;93.00;;;;;;5096877;28;19998;-76
2023/10/08 09:28:25;;;;;;;;;;;17.90;93.10;;;;;;5113328;28;19908;-71
2023/10/08 09:30:55;;;;;;;;;;;17.90;93.30;;;;;;5112754;28;19923;-75
2023/10/08 09:33:21;;;;;;;;;;;18.00;93.40;;;;;;5112557;28;20269;-72
2023/10/08 09:35:48;;;;;;;;;;;18.00;93.50;;;;;;5112693;28;19954;-72
2023/10/08 09:38:22;;;;;;;;;;;17.90;93.60;;;;;;5111754;28;19921;-69
2023/10/08 09:40:49;;;;;;;;;;;17.90;93.70;;;;;;5112436;28;20002;-70
2023/10/08 09:43:16;;;;;;;;;;;17.80;93.70;;;;;;5094273;28;20336;-68
2023/10/08 09:45:46;;;;;;;;;;;17.80;93.90;;;;;;5112571;28;19931;-72
2023/10/08 09:48:16;;;;;;;;;;;17.70;94.30;;;;;;5112128;28;19919;-69
2023/10/08 09:50:44;;;;;;;;;;;17.70;94.40;;;;;;5112379;28;20368;-70
2023/10/08 09:53:22;;;;;;;;;;;17.60;94.60;;;;;;5112096;28;19911;-73
2023/10/08 09:55:56;;;;;;;;;;;17.60;94.60;;;;;;5096306;28;19908;-69
2023/10/08 09:58:24;;;;;;;;;;;17.60;95.00;;;;;;5116429;28;19951;-70
2023/10/08 10:00:52;;;;;;;;;;;17.70;94.70;;;;;;5110499;28;19912;-72
2023/10/08 10:03:20;;;;;;;;;;;17.60;94.90;;;;;;5113596;28;19912;-72
2023/10/08 10:05:48;;;;;;;;;;;17.60;94.70;;;;;;5111521;28;19957;-72
2023/10/08 10:08:15;;;;;;;;;;;17.60;94.70;;;;;;5111297;28;19926;-70
2023/10/08 10:10:47;;;;;;;;;;;17.60;94.70;;;;;;5106854;28;20334;-69
2023/10/08 10:13:16;;;;;;;;;;;17.50;94.60;;;;;;5111928;28;19986;-72
2023/10/08 10:15:44;;;;;;;;;;;17.50;94.80;;;;;;5113205;28;19912;-70
2023/10/08 10:18:28;;;;;;;;;;;17.50;94.70;;;;;;5115546;28;19907;-69
2023/10/08 10:21:20;;;;;;;;;;;17.60;94.70;;;;;;5110957;28;19912;-73
2023/10/08 10:23:50;;;;;;;;;;;17.60;94.90;;;;;;5110785;28;20332;-72
2023/10/08 10:26:26;;;;;;;;;;;17.50;95.00;;;;;;5115674;28;20307;-71
2023/10/08 10:29:16;;;;;;;;;;;17.50;94.90;;;;;;5109702;28;19965;-72
2023/10/08 10:31:46;;;;;;;;;;;17.40;95.30;;;;;;5103792;28;19916;-73
2023/10/08 10:34:15;;;;;;;;;;;17.40;95.60;;;;;;5108681;28;20411;-72
2023/10/08 10:36:43;;;;;;;;;;;17.40;95.40;;;;;;5114303;28;19953;-74
2023/10/08 10:39:16;;;;;;;;;;;17.40;95.70;;;;;;5113550;28;19912;-73
2023/10/08 10:41:46;;;;;;;;;;;17.40;95.40;;;;;;5115729;28;20374;-72
2023/10/08 10:44:16;;;;;;;;;;;17.30;95.70;;;;;;5095094;28;19961;-71
2023/10/08 10:46:43;;;;;;;;;;;17.20;95.80;;;;;;5095052;28;19908;-73
2023/10/08 10:49:22;;;;;;;;;;;17.20;96.30;;;;;;5094893;28;19962;-68
2023/10/08 10:51:53;;;;;;;;;;;17.30;96.30;;;;;;5112062;28;19943;-68
2023/10/08 10:54:23;;;;;;;;;;;17.20;96.40;;;;;;5112071;28;20339;-73
2023/10/08 10:57:03;;;;;;;;;;;17.30;96.60;;;;;;5109560;28;19969;-71
2023/10/08 10:59:36;;;;;;;;;;;17.30;96.90;;;;;;5108966;28;20023;-73
2023/10/08 11:02:49;;;;;;;;;;;17.30;96.80;;;;;;5110818;28;19955;-72
2023/10/08 11:05:07;;;;;;;;;;;17.30;97.00;;;;;;5091306;28;19912;-70
2023/10/08 11:07:34;;;;;;;;;;;17.30;97.20;;;;;;5113257;28;19922;-71
2023/10/08 11:10:06;;;;;;;;;;;17.20;97.70;;;;;;5114821;28;19912;-69
2023/10/08 11:12:42;;;;;;;;;;;17.10;97.60;;;;;;5114724;28;19912;-69
2023/10/08 11:15:15;;;;;;;;;;;17.10;97.50;;;;;;5114564;28;19912;-72
2023/10/08 11:17:43;;;;;;;;;;;17.10;97.80;;;;;;5115344;28;19907;-67
2023/10/08 11:20:25;;;;;;;;;;;17.10;98.00;;;;;;5115029;28;19915;-67
2023/10/08 11:22:53;;;;;;;;;;;17.10;98.10;;;;;;5114770;28;19954;-70
2023/10/08 11:25:30;;;;;;;;;;;16.90;98.30;;;;;;5114710;28;19907;-70
2023/10/08 11:28:09;;;;;;;;;;;17.00;98.80;;;;;;5114756;28;19907;-71
2023/10/08 11:30:36;;;;;;;;;;;16.90;99.00;;;;;;5096491;28;19916;-70
2023/10/08 11:33:06;;;;;;;;;;;16.90;99.40;;;;;;5114749;28;19914;-72
2023/10/08 11:35:33;;;;;;;;;;;16.80;99.50;;;;;;5114204;28;20301;-70
2023/10/08 11:38:03;;;;;;;;;;;16.80;99.90;;;;;;5114316;28;19962;-70
2023/10/08 11:40:48;;;;;;;;;;;16.70;99.90;;;;;;5114456;28;19939;-70
2023/10/08 11:43:18;;;;;;;;;;;16.70;99.90;;;;;;5095999;28;19912;-71
2023/10/08 11:45:50;;;;;;;;;;;16.60;99.90;;;;;;5114313;28;19907;-70
2023/10/08 11:48:28;;;;;;;;;;;16.50;99.90;;;;;;5114162;28;19965;-72
2023/10/08 11:51:01;;;;;;;;;;;16.50;99.90;;;;;;5113700;28;20371;-73
2023/10/08 11:53:28;;;;;;;;;;;16.50;99.90;;;;;;5114062;28;20335;-72
2023/10/08 11:55:57;;;;;;;;;;;16.40;99.90;;;;;;5113744;28;19911;-71
2023/10/08 11:58:37;;;;;;;;;;;16.30;99.90;;;;;;5113884;28;20275;-73
2023/10/08 12:01:03;;;;;;;;;;;16.30;99.90;;;;;;5113719;28;19916;-73
2023/10/08 12:03:31;;;;;;;;;;;16.30;99.90;;;;;;5113974;28;19998;-72
2023/10/08 12:06:01;;;;;;;;;;;16.20;99.90;;;;;;5113616;28;19907;-71
2023/10/08 12:08:28;;;;;;;;;;;16.20;99.90;;;;;;5113382;28;19915;-73
2023/10/08 12:10:55;;;;;;;;;;;16.20;99.90;;;;;;5113701;28;19916;-70
2023/10/08 12:13:28;;;;;;;;;;;16.10;99.90;;;;;;5113565;28;19953;-72
2023/10/08 12:16:41;;;;;;;;;;;16.10;99.90;;;;;;5112991;28;19977;-72
2023/10/08 12:18:43;;;;;;;;;;;16.00;99.90;;;;;;5102061;28;20380;-72
2023/10/08 12:21:10;;;;;;;;;;;16.00;99.90;;;;;;5113675;28;19908;-75
2023/10/08 12:23:37;;;;;;;;;;;15.90;99.90;;;;;;5113356;28;20257;-72
2023/10/08 12:26:07;;;;;;;;;;;15.90;99.90;;;;;;5113628;28;20433;-72
2023/10/08 12:28:34;;;;;;;;;;;15.80;99.90;;;;;;5113288;28;20006;-74
2023/10/08 12:31:01;;;;;;;;;;;15.80;99.90;;;;;;5113602;28;20006;-71
2023/10/08 12:33:29;;;;;;;;;;;15.70;99.90;;;;;;5113501;28;19908;-72
2023/10/08 12:35:57;;;;;;;;;;;15.80;99.90;;;;;;5118644;28;19911;-72
2023/10/08 12:38:23;;;;;;;;;;;15.80;99.90;;;;;;5118674;28;19908;-73
2023/10/08 12:40:53;;;;;;;;;;;15.70;99.90;;;;;;5113933;28;19951;-72
2023/10/08 12:43:20;;;;;;;;;;;15.70;99.90;;;;;;5114258;28;20333;-73
2023/10/08 12:45:56;;;;;;;;;;;15.70;99.90;;;;;;5113996;28;20275;-73
2023/10/08 12:48:27;;;;;;;;;;;15.70;99.90;;;;;;5113253;28;20330;-72
2023/10/08 12:50:57;;;;;;;;;;;15.60;99.90;;;;;;5113163;28;19998;-71
2023/10/08 12:53:27;;;;;;;;;;;15.50;99.90;;;;;;5113389;28;19965;-72
2023/10/08 12:55:54;;;;;;;;;;;15.50;99.90;;;;;;5113424;28;19907;-73
2023/10/08 12:58:25;;;;;;;;;;;15.40;99.90;;;;;;5112937;28;20049;-73
2023/10/08 13:00:57;;;;;;;;;;;15.40;99.90;;;;;;5113114;28;19915;-72
2023/10/08 13:03:24;;;;;;;;;;;15.40;99.90;;;;;;5113043;28;19911;-71
2023/10/08 13:05:54;;;;;;;;;;;15.40;99.90;;;;;;5094897;28;19908;-73
2023/10/08 13:08:21;;;;;;;;;;;15.40;99.90;;;;;;5113056;28;20041;-70
2023/10/08 13:10:48;;;;;;;;;;;15.30;99.90;;;;;;5112811;28;19919;-72
2023/10/08 13:13:15;;;;;;;;;;;15.30;99.90;;;;;;5112839;28;19908;-71
2023/10/08 13:15:44;;;;;;;;;;;15.20;99.90;;;;;;5112775;28;20394;-72
2023/10/08 13:18:11;;;;;;;;;;;15.20;99.90;;;;;;5112740;28;19915;-73
2023/10/08 13:20:40;;;;;;;;;;;15.20;99.90;;;;;;5112688;28;20296;-67
2023/10/08 13:23:07;;;;;;;;;;;15.20;99.90;;;;;;5112932;28;19908;-70
2023/10/08 13:25:39;;;;;;;;;;;15.20;99.90;;;;;;5113041;28;19914;-67
2023/10/08 13:28:11;;;;;;;;;;;15.10;99.90;;;;;;5112694;28;19915;-73
2023/10/08 13:30:38;;;;;;;;;;;15.20;99.90;;;;;;5114652;28;19922;-70
2023/10/08 13:33:06;;;;;;;;;;;15.10;99.90;;;;;;5116917;28;19985;-69
2023/10/08 13:35:33;;;;;;;;;;;15.10;99.90;;;;;;5117080;28;19934;-69
2023/10/08 13:38:06;;;;;;;;;;;15.00;99.90;;;;;;5116939;28;19914;-68
2023/10/08 13:40:32;;;;;;;;;;;15.10;99.90;;;;;;5117069;28;19962;-69
2023/10/08 13:42:59;;;;;;;;;;;15.00;99.90;;;;;;5117269;28;19943;-69
2023/10/08 13:45:26;;;;;;;;;;;15.10;99.90;;;;;;5116596;28;20280;-68
2023/10/08 13:47:53;;;;;;;;;;;15.00;99.90;;;;;;5116807;28;20010;-72
2023/10/08 13:50:21;;;;;;;;;;;15.00;99.90;;;;;;5116638;28;19912;-68
2023/10/08 13:52:48;;;;;;;;;;;15.00;99.90;;;;;;5116484;28;19947;-71
2023/10/08 13:55:16;;;;;;;;;;;15.00;99.90;;;;;;5116413;28;19999;-69
2023/10/08 13:57:44;;;;;;;;;;;15.00;99.90;;;;;;5116016;28;19934;-69
2023/10/08 14:00:15;;;;;;;;;;;14.90;99.90;;;;;;5116430;28;20337;-70
2023/10/08 14:02:44;;;;;;;;;;;14.90;99.90;;;;;;5116522;28;20332;-71
2023/10/08 14:05:15;;;;;;;;;;;14.80;99.90;;;;;;5116483;28;20360;-72
2023/10/08 14:07:44;;;;;;;;;;;14.80;99.90;;;;;;5116211;28;19918;-71
2023/10/08 14:10:18;;;;;;;;;;;14.90;99.90;;;;;;5116075;28;19912;-74
2023/10/08 14:12:49;;;;;;;;;;;14.80;99.90;;;;;;5116191;28;19919;-72
2023/10/08 14:15:18;;;;;;;;;;;14.80;99.90;;;;;;5115669;28;19915;-74
2023/10/08 14:17:53;;;;;;;;;;;14.70;99.90;;;;;;5115443;28;19904;-71
2023/10/08 14:20:23;;;;;;;;;;;14.70;99.90;;;;;;5115906;28;19953;-72
2023/10/08 14:22:57;;;;;;;;;;;14.70;99.90;;;;;;5116017;28;19907;-75
2023/10/08 14:25:27;;;;;;;;;;;14.70;99.90;;;;;;5115303;28;20006;-69
2023/10/08 14:28:04;;;;;;;;;;;14.70;99.90;;;;;;5115393;28;19919;-71
2023/10/08 14:30:40;;;;;;;;;;;14.60;99.90;;;;;;5115693;28;19954;-73
2023/10/08 14:33:12;;;;;;;;;;;14.60;99.90;;;;;;5115632;28;19908;-70
2023/10/08 14:43:53;;;;;;;;;;;14.50;99.90;;;;;;5115994;28;19915;-70
2023/10/08 14:46:20;;;;;;;;;;;14.40;99.90;;;;;;5115863;28;19915;-69
2023/10/08 14:48:46;;;;;;;;;;;14.40;99.90;;;;;;5115606;28;19973;-72
2023/10/08 14:51:19;;;;;;;;;;;14.40;99.90;;;;;;5115640;28;19916;-70
2023/10/08 14:53:45;;;;;;;;;;;14.40;99.90;;;;;;5115305;28;19915;-71
2023/10/08 14:56:15;;;;;;;;;;;14.30;99.90;;;;;;5115293;28;19911;-72
2023/10/08 14:58:42;;;;;;;;;;;14.30;99.90;;;;;;5115030;28;19914;-69
2023/10/08 15:01:13;;;;;;;;;;;14.30;99.90;;;;;;5115080;28;19999;-67
2023/10/08 15:03:39;;;;;;;;;;;14.30;99.90;;;;;;5115036;28;19914;-74
2023/10/08 15:06:07;;;;;;;;;;;14.40;99.90;;;;;;5115138;28;19908;-73
2023/10/08 15:08:34;;;;;;;;;;;14.40;99.90;;;;;;5114520;28;19911;-71
2023/10/08 15:11:02;;;;;;;;;;;14.30;99.90;;;;;;5114604;28;19912;-69
2023/10/08 15:13:31;;;;;;;;;;;14.30;99.90;;;;;;5114953;28;19908;-73
2023/10/08 15:15:59;;;;;;;;;;;14.20;99.90;;;;;;5114674;28;19939;-69
2023/10/08 15:18:31;;;;;;;;;;;14.20;99.90;;;;;;5114888;28;19908;-70
2023/10/08 15:20:58;;;;;;;;;;;14.20;99.90;;;;;;5114834;28;19908;-72
2023/10/08 15:23:27;;;;;;;;;;;14.20;99.90;;;;;;5115054;28;19908;-71
2023/10/08 15:25:54;;;;;;;;;;;14.20;99.90;;;;;;5114971;28;19998;-72
2023/10/08 15:28:21;;;;;;;;;;;14.10;99.90;;;;;;5114799;28;19915;-71
2023/10/08 15:30:47;;;;;;;;;;;14.10;99.90;;;;;;5114679;28;19915;-72